Observations for JERSEY AIRPORT, United Kingdom (EGJJ)

EGJJ 191950Z 31002KT 9999 FEW022 11/09 Q1005
EGJJ 191920Z 30003KT 9999 FEW022 11/09 Q1005
EGJJ 191850Z 31003KT 9999 FEW022 11/08 Q1005
EGJJ 191820Z 31004KT 9999 FEW021 12/09 Q1004
EGJJ 191750Z 31003KT 9999 FEW021 12/09 Q1004
EGJJ 191720Z 30005KT 9999 FEW021 12/09 Q1004
EGJJ 191650Z 29006KT 9999 VCSH FEW020 13/09 Q1004   
EGJJ 191620Z 27005KT 9999 VCSH FEW020 14/10 Q1003   
EGJJ 191550Z 26008KT 9999 VCSH FEW019 15/10 Q1003   
EGJJ 191520Z 27010KT 9999 VCSH FEW019 15/10 Q1003   
EGJJ 191450Z 27011KT 9999 FEW019 15/10 Q1003
EGJJ 191420Z 25012KT 9999 FEW020 16/10 Q1003
EGJJ 191350Z 26014KT 9999 FEW020CB 15/10 Q1003  
EGJJ 191320Z 25014KT 9999 FEW020CB 16/10 Q1003  
EGJJ 191250Z 25016KT 9999 FEW020CB 15/10 Q1003  
EGJJ 191220Z 25015KT 9999 FEW019CB 15/11 Q1003  
EGJJ 191150Z 24015KT 9999 FEW016CB 15/11 Q1003  
EGJJ 191120Z 24015KT 9999 FEW015CB 15/11 Q1003  
EGJJ 191050Z 24015KT 9999 VCSH FEW015CB 15/11 Q1003 
EGJJ 191020Z 24017KT 9999 SCT015CB 15/11 Q1003  
EGJJ 190950Z 24016KT 9999 VCSH SCT015CB 14/11 Q1002 
EGJJ 190920Z 24014KT 9999 VCSH FEW014CB SCT017 13/11 Q1002  
EGJJ 190850Z 24017KT 9999 FEW015CB SCT018 13/11 Q1002   
EGJJ 190820Z 24015KT 9999 VCSH FEW015CB FEW017 13/10 Q1002  
EGJJ 190750Z 24016KT 9999 VCSH SCT016CB 13/10 Q1002 
EGJJ 190720Z 24016KT 9999 VCSH SCT016CB 13/10 Q1002 
EGJJ 190650Z 23016KT 9999 SCT016 13/10 Q1002
EGJJ 190620Z 24017KT 9999 SCT017 13/10 Q1002
EGJJ 190550Z 24018KT 9999 SCT017 12/10 Q1002
EGJJ 190520Z 23017KT 9999 SCT017 12/10 Q1002
EGJJ 190450Z 23015G25KT 9999 SCT015 13/11 Q1001 
EGJJ 190420Z AUTO 24018KT 9999 FEW014/// SCT017/// 12/10 Q1001  
EGJJ 190350Z AUTO 23016KT 9999 SCT016/// BKN018/// 12/10 Q1001 RERA 
EGJJ 190320Z AUTO 23017KT 9999 FEW014/// SCT017/// 12/10 Q1001 RERA 
EGJJ 190250Z AUTO 24018KT 9999 SCT016/// SCT019/// BKN023/// 13/10 Q1001
EGJJ 190220Z AUTO 23016KT 9999 SCT017/// BKN020/// BKN024/// 13/10 Q1001
EGJJ 190150Z AUTO 23015KT 9999 SCT018/// BKN021/// BKN026/// 13/10 Q1001
EGJJ 190120Z AUTO 23016KT 9999 SCT014/// BKN017/// BKN019/// 13/10 Q1002
EGJJ 190050Z AUTO 23014KT 9999 FEW018/// SCT020/// 13/10 Q1002  
EGJJ 190020Z AUTO 23017KT 9999 SCT018/// SCT023/// 13/10 Q1002  
EGJJ 182350Z AUTO 23017KT 9999 FEW017/// SCT020/// 13/10 Q1002  
EGJJ 182320Z AUTO 23016KT 9999 FEW017/// SCT022/// 13/10 Q1002  
EGJJ 182250Z AUTO 23015KT 9999 FEW018/// 13/10 Q1002
EGJJ 182220Z AUTO 23017KT 9999 SCT017/// BKN023/// BKN028/// 13/10 Q1002
EGJJ 182150Z AUTO 23018KT 9999 SCT020/// BKN022/// BKN025/// 13/10 Q1002
EGJJ 182120Z AUTO 23016KT 9999 SCT019/// SCT022/// BKN026/// 13/10 Q1003
EGJJ 182050Z 23015KT 9999 FEW020 13/10 Q1003
EGJJ 182020Z 23016KT 9999 FEW021 13/09 Q1003
EGJJ 181950Z 23017KT 9999 FEW020 13/10 Q1003
EGJJ 181920Z 22016KT 9999 FEW020 13/10 Q1003